sensor_id;sensor_type;location;lat;lon;timestamp;P1;durP1;ratioP1;P2;durP2;ratioP2
50954;SDS011;36966;48.064;-0.792;2023-04-03T00:01:54;7.53;;;0.80;;
50954;SDS011;36966;48.064;-0.792;2023-04-03T00:04:13;9.85;;;1.40;;
50954;SDS011;36966;48.064;-0.792;2023-04-03T00:06:32;9.63;;;1.40;;
50954;SDS011;36966;48.064;-0.792;2023-04-03T00:08:52;8.38;;;1.50;;
50954;SDS011;36966;48.064;-0.792;2023-04-03T00:11:11;8.02;;;1.02;;
50954;SDS011;36966;48.064;-0.792;2023-04-03T00:13:31;9.07;;;1.65;;
50954;SDS011;36966;48.064;-0.792;2023-04-03T00:15:52;12.48;;;1.20;;
50954;SDS011;36966;48.064;-0.792;2023-04-03T00:18:11;11.73;;;1.88;;
50954;SDS011;36966;48.064;-0.792;2023-04-03T00:20:30;6.70;;;1.27;;
50954;SDS011;36966;48.064;-0.792;2023-04-03T00:22:50;9.82;;;1.23;;
50954;SDS011;36966;48.064;-0.792;2023-04-03T00:25:10;10.18;;;1.20;;
50954;SDS011;36966;48.064;-0.792;2023-04-03T00:27:29;9.85;;;2.33;;
50954;SDS011;36966;48.064;-0.792;2023-04-03T00:29:48;8.82;;;1.70;;
50954;SDS011;36966;48.064;-0.792;2023-04-03T00:32:08;14.05;;;4.50;;
50954;SDS011;36966;48.064;-0.792;2023-04-03T00:34:27;9.52;;;1.55;;
50954;SDS011;36966;48.064;-0.792;2023-04-03T00:36:46;9.77;;;1.25;;
50954;SDS011;36966;48.064;-0.792;2023-04-03T00:39:05;7.03;;;1.52;;
50954;SDS011;36966;48.064;-0.792;2023-04-03T00:41:25;9.10;;;1.17;;
50954;SDS011;36966;48.064;-0.792;2023-04-03T00:43:44;9.32;;;1.30;;
50954;SDS011;36966;48.064;-0.792;2023-04-03T00:46:04;9.27;;;2.17;;
50954;SDS011;36966;48.064;-0.792;2023-04-03T00:48:38;7.68;;;1.27;;
50954;SDS011;36966;48.064;-0.792;2023-04-03T00:51:03;5.97;;;1.00;;
50954;SDS011;36966;48.064;-0.792;2023-04-03T00:53:26;7.90;;;1.42;;
50954;SDS011;36966;48.064;-0.792;2023-04-03T00:55:49;12.27;;;1.90;;
50954;SDS011;36966;48.064;-0.792;2023-04-03T00:58:11;8.50;;;1.42;;
50954;SDS011;36966;48.064;-0.792;2023-04-03T01:00:31;8.20;;;1.45;;
50954;SDS011;36966;48.064;-0.792;2023-04-03T01:02:51;10.98;;;2.45;;
50954;SDS011;36966;48.064;-0.792;2023-04-03T01:05:10;9.52;;;1.30;;
50954;SDS011;36966;48.064;-0.792;2023-04-03T01:07:31;7.35;;;1.30;;
50954;SDS011;36966;48.064;-0.792;2023-04-03T01:09:54;12.20;;;1.02;;
50954;SDS011;36966;48.064;-0.792;2023-04-03T01:14:44;14.18;;;1.50;;
50954;SDS011;36966;48.064;-0.792;2023-04-03T01:22:45;8.52;;;1.25;;
50954;SDS011;36966;48.064;-0.792;2023-04-03T01:25:20;7.15;;;1.15;;
50954;SDS011;36966;48.064;-0.792;2023-04-03T01:27:39;5.55;;;1.10;;
50954;SDS011;36966;48.064;-0.792;2023-04-03T01:29:58;9.27;;;1.00;;
50954;SDS011;36966;48.064;-0.792;2023-04-03T01:32:17;10.27;;;0.93;;
50954;SDS011;36966;48.064;-0.792;2023-04-03T01:34:36;7.97;;;1.48;;
50954;SDS011;36966;48.064;-0.792;2023-04-03T01:36:56;8.27;;;1.10;;
50954;SDS011;36966;48.064;-0.792;2023-04-03T01:39:15;7.50;;;1.92;;
50954;SDS011;36966;48.064;-0.792;2023-04-03T01:41:36;8.60;;;1.52;;
50954;SDS011;36966;48.064;-0.792;2023-04-03T01:43:55;7.65;;;1.13;;
50954;SDS011;36966;48.064;-0.792;2023-04-03T01:46:14;9.13;;;1.75;;
50954;SDS011;36966;48.064;-0.792;2023-04-03T01:48:35;5.63;;;1.20;;
50954;SDS011;36966;48.064;-0.792;2023-04-03T01:50:54;5.30;;;1.05;;
50954;SDS011;36966;48.064;-0.792;2023-04-03T01:53:13;9.90;;;1.00;;
50954;SDS011;36966;48.064;-0.792;2023-04-03T01:55:33;9.73;;;1.10;;
50954;SDS011;36966;48.064;-0.792;2023-04-03T01:57:53;7.53;;;1.27;;
50954;SDS011;36966;48.064;-0.792;2023-04-03T02:00:12;10.23;;;2.08;;
50954;SDS011;36966;48.064;-0.792;2023-04-03T02:02:31;7.68;;;0.95;;
50954;SDS011;36966;48.064;-0.792;2023-04-03T02:04:50;5.93;;;1.38;;
50954;SDS011;36966;48.064;-0.792;2023-04-03T02:07:09;10.10;;;1.58;;
50954;SDS011;36966;48.064;-0.792;2023-04-03T02:09:28;6.60;;;1.05;;
50954;SDS011;36966;48.064;-0.792;2023-04-03T02:11:48;3.95;;;1.08;;
50954;SDS011;36966;48.064;-0.792;2023-04-03T02:14:07;11.73;;;1.27;;
50954;SDS011;36966;48.064;-0.792;2023-04-03T02:16:26;9.13;;;0.98;;
50954;SDS011;36966;48.064;-0.792;2023-04-03T02:18:45;4.35;;;0.98;;
50954;SDS011;36966;48.064;-0.792;2023-04-03T02:21:05;14.18;;;1.63;;
50954;SDS011;36966;48.064;-0.792;2023-04-03T02:23:24;9.30;;;0.85;;
50954;SDS011;36966;48.064;-0.792;2023-04-03T02:25:43;6.00;;;1.30;;
50954;SDS011;36966;48.064;-0.792;2023-04-03T02:28:03;9.02;;;1.10;;
50954;SDS011;36966;48.064;-0.792;2023-04-03T02:30:22;5.75;;;1.05;;
50954;SDS011;36966;48.064;-0.792;2023-04-03T02:32:41;12.85;;;0.70;;
50954;SDS011;36966;48.064;-0.792;2023-04-03T02:35:01;6.30;;;1.58;;
50954;SDS011;36966;48.064;-0.792;2023-04-03T02:37:21;3.85;;;1.50;;
50954;SDS011;36966;48.064;-0.792;2023-04-03T02:39:40;7.50;;;1.00;;
50954;SDS011;36966;48.064;-0.792;2023-04-03T02:42:00;4.65;;;1.35;;
50954;SDS011;36966;48.064;-0.792;2023-04-03T02:44:19;6.32;;;1.00;;
50954;SDS011;36966;48.064;-0.792;2023-04-03T02:46:38;4.53;;;0.80;;
50954;SDS011;36966;48.064;-0.792;2023-04-03T02:48:58;14.48;;;1.80;;
50954;SDS011;36966;48.064;-0.792;2023-04-03T02:51:17;7.25;;;1.75;;
50954;SDS011;36966;48.064;-0.792;2023-04-03T02:53:37;8.45;;;0.95;;
50954;SDS011;36966;48.064;-0.792;2023-04-03T02:55:56;10.02;;;2.08;;
50954;SDS011;36966;48.064;-0.792;2023-04-03T02:58:15;10.23;;;1.67;;
50954;SDS011;36966;48.064;-0.792;2023-04-03T03:00:34;4.32;;;0.93;;
50954;SDS011;36966;48.064;-0.792;2023-04-03T03:02:54;5.30;;;0.73;;
50954;SDS011;36966;48.064;-0.792;2023-04-03T03:05:13;17.35;;;1.40;;
50954;SDS011;36966;48.064;-0.792;2023-04-03T03:07:33;7.22;;;0.88;;
50954;SDS011;36966;48.064;-0.792;2023-04-03T03:09:52;3.25;;;0.75;;
50954;SDS011;36966;48.064;-0.792;2023-04-03T03:12:12;8.38;;;1.23;;
50954;SDS011;36966;48.064;-0.792;2023-04-03T03:14:31;5.40;;;1.38;;
50954;SDS011;36966;48.064;-0.792;2023-04-03T03:16:50;6.40;;;1.55;;
50954;SDS011;36966;48.064;-0.792;2023-04-03T03:19:10;5.93;;;1.00;;
50954;SDS011;36966;48.064;-0.792;2023-04-03T03:21:29;4.72;;;0.70;;
50954;SDS011;36966;48.064;-0.792;2023-04-03T03:23:49;8.07;;;1.52;;
50954;SDS011;36966;48.064;-0.792;2023-04-03T03:26:08;9.60;;;1.17;;
50954;SDS011;36966;48.064;-0.792;2023-04-03T03:28:29;6.28;;;0.98;;
50954;SDS011;36966;48.064;-0.792;2023-04-03T03:30:48;6.68;;;1.95;;
50954;SDS011;36966;48.064;-0.792;2023-04-03T03:33:08;7.78;;;0.90;;
50954;SDS011;36966;48.064;-0.792;2023-04-03T03:35:27;9.50;;;1.50;;
50954;SDS011;36966;48.064;-0.792;2023-04-03T03:37:46;7.03;;;0.80;;
50954;SDS011;36966;48.064;-0.792;2023-04-03T03:40:06;5.35;;;0.77;;
50954;SDS011;36966;48.064;-0.792;2023-04-03T03:42:25;5.03;;;1.13;;
50954;SDS011;36966;48.064;-0.792;2023-04-03T03:44:44;6.93;;;1.13;;
50954;SDS011;36966;48.064;-0.792;2023-04-03T03:47:04;3.78;;;1.08;;
50954;SDS011;36966;48.064;-0.792;2023-04-03T03:49:24;10.02;;;1.15;;
50954;SDS011;36966;48.064;-0.792;2023-04-03T03:51:43;5.32;;;1.08;;
50954;SDS011;36966;48.064;-0.792;2023-04-03T03:54:03;6.50;;;2.50;;
50954;SDS011;36966;48.064;-0.792;2023-04-03T03:56:23;7.03;;;3.22;;
50954;SDS011;36966;48.064;-0.792;2023-04-03T03:58:43;11.27;;;2.65;;
50954;SDS011;36966;48.064;-0.792;2023-04-03T04:01:03;12.32;;;2.80;;
50954;SDS011;36966;48.064;-0.792;2023-04-03T04:03:24;9.75;;;2.92;;
50954;SDS011;36966;48.064;-0.792;2023-04-03T04:05:43;8.00;;;2.55;;
50954;SDS011;36966;48.064;-0.792;2023-04-03T04:08:03;5.53;;;2.10;;
50954;SDS011;36966;48.064;-0.792;2023-04-03T04:10:22;5.05;;;1.98;;
50954;SDS011;36966;48.064;-0.792;2023-04-03T04:12:41;7.18;;;2.03;;
50954;SDS011;36966;48.064;-0.792;2023-04-03T04:15:01;5.70;;;2.03;;
50954;SDS011;36966;48.064;-0.792;2023-04-03T04:17:21;7.28;;;2.10;;
50954;SDS011;36966;48.064;-0.792;2023-04-03T04:19:40;7.55;;;2.08;;
50954;SDS011;36966;48.064;-0.792;2023-04-03T04:21:59;6.35;;;2.95;;
50954;SDS011;36966;48.064;-0.792;2023-04-03T04:24:19;3.72;;;1.60;;
50954;SDS011;36966;48.064;-0.792;2023-04-03T04:26:38;10.82;;;3.65;;
50954;SDS011;36966;48.064;-0.792;2023-04-03T04:28:58;6.03;;;1.98;;
50954;SDS011;36966;48.064;-0.792;2023-04-03T04:31:17;10.52;;;2.22;;
50954;SDS011;36966;48.064;-0.792;2023-04-03T04:33:36;6.07;;;2.03;;
50954;SDS011;36966;48.064;-0.792;2023-04-03T04:35:55;7.82;;;3.10;;
50954;SDS011;36966;48.064;-0.792;2023-04-03T04:38:14;4.78;;;1.92;;
50954;SDS011;36966;48.064;-0.792;2023-04-03T04:40:33;3.70;;;2.22;;
50954;SDS011;36966;48.064;-0.792;2023-04-03T04:42:52;4.38;;;1.75;;
50954;SDS011;36966;48.064;-0.792;2023-04-03T04:45:12;6.90;;;2.58;;
50954;SDS011;36966;48.064;-0.792;2023-04-03T04:47:31;6.07;;;2.58;;
50954;SDS011;36966;48.064;-0.792;2023-04-03T04:49:51;8.98;;;2.85;;
50954;SDS011;36966;48.064;-0.792;2023-04-03T04:52:10;4.25;;;2.78;;
50954;SDS011;36966;48.064;-0.792;2023-04-03T04:54:29;6.63;;;2.58;;
50954;SDS011;36966;48.064;-0.792;2023-04-03T04:56:49;4.85;;;2.38;;
50954;SDS011;36966;48.064;-0.792;2023-04-03T04:59:08;3.35;;;2.20;;
50954;SDS011;36966;48.064;-0.792;2023-04-03T05:01:27;6.47;;;2.45;;
50954;SDS011;36966;48.064;-0.792;2023-04-03T05:03:47;5.88;;;2.60;;
50954;SDS011;36966;48.064;-0.792;2023-04-03T05:06:06;5.70;;;2.17;;
50954;SDS011;36966;48.064;-0.792;2023-04-03T05:08:26;5.75;;;2.58;;
50954;SDS011;36966;48.064;-0.792;2023-04-03T05:10:45;5.45;;;2.50;;
50954;SDS011;36966;48.064;-0.792;2023-04-03T05:13:05;4.80;;;2.63;;
50954;SDS011;36966;48.064;-0.792;2023-04-03T05:15:24;8.50;;;2.50;;
50954;SDS011;36966;48.064;-0.792;2023-04-03T05:17:43;6.38;;;2.35;;
50954;SDS011;36966;48.064;-0.792;2023-04-03T05:20:03;6.18;;;2.80;;
50954;SDS011;36966;48.064;-0.792;2023-04-03T05:22:23;5.43;;;2.75;;
50954;SDS011;36966;48.064;-0.792;2023-04-03T05:24:43;5.70;;;2.42;;
50954;SDS011;36966;48.064;-0.792;2023-04-03T05:27:02;7.88;;;2.65;;
50954;SDS011;36966;48.064;-0.792;2023-04-03T05:29:22;8.23;;;3.22;;
50954;SDS011;36966;48.064;-0.792;2023-04-03T05:31:41;6.07;;;2.70;;
50954;SDS011;36966;48.064;-0.792;2023-04-03T05:34:00;5.57;;;3.13;;
50954;SDS011;36966;48.064;-0.792;2023-04-03T05:36:19;5.28;;;2.88;;
50954;SDS011;36966;48.064;-0.792;2023-04-03T05:38:39;5.82;;;2.90;;
50954;SDS011;36966;48.064;-0.792;2023-04-03T05:40:59;6.68;;;2.60;;
50954;SDS011;36966;48.064;-0.792;2023-04-03T05:43:18;4.97;;;2.85;;
50954;SDS011;36966;48.064;-0.792;2023-04-03T05:45:38;6.82;;;2.90;;
50954;SDS011;36966;48.064;-0.792;2023-04-03T05:47:57;4.70;;;2.17;;
50954;SDS011;36966;48.064;-0.792;2023-04-03T05:50:16;5.68;;;2.95;;
50954;SDS011;36966;48.064;-0.792;2023-04-03T05:52:36;6.05;;;2.58;;
50954;SDS011;36966;48.064;-0.792;2023-04-03T05:54:58;6.07;;;3.42;;
50954;SDS011;36966;48.064;-0.792;2023-04-03T05:57:18;4.57;;;3.08;;
50954;SDS011;36966;48.064;-0.792;2023-04-03T05:59:37;3.85;;;2.80;;
50954;SDS011;36966;48.064;-0.792;2023-04-03T06:01:56;4.68;;;2.80;;
50954;SDS011;36966;48.064;-0.792;2023-04-03T06:04:15;4.88;;;2.58;;
50954;SDS011;36966;48.064;-0.792;2023-04-03T06:06:45;4.53;;;2.55;;
50954;SDS011;36966;48.064;-0.792;2023-04-03T06:09:09;5.47;;;2.65;;
50954;SDS011;36966;48.064;-0.792;2023-04-03T06:11:28;4.90;;;3.05;;
50954;SDS011;36966;48.064;-0.792;2023-04-03T06:13:47;3.70;;;2.58;;
50954;SDS011;36966;48.064;-0.792;2023-04-03T06:16:08;3.08;;;2.13;;
50954;SDS011;36966;48.064;-0.792;2023-04-03T06:18:32;5.13;;;2.55;;
50954;SDS011;36966;48.064;-0.792;2023-04-03T06:20:52;4.85;;;2.42;;
50954;SDS011;36966;48.064;-0.792;2023-04-03T06:23:11;4.88;;;3.05;;
50954;SDS011;36966;48.064;-0.792;2023-04-03T06:25:30;5.47;;;2.80;;
50954;SDS011;36966;48.064;-0.792;2023-04-03T06:27:50;5.28;;;3.13;;
50954;SDS011;36966;48.064;-0.792;2023-04-03T06:30:09;5.47;;;2.55;;
50954;SDS011;36966;48.064;-0.792;2023-04-03T06:32:29;4.38;;;2.83;;
50954;SDS011;36966;48.064;-0.792;2023-04-03T06:34:48;5.70;;;2.95;;
50954;SDS011;36966;48.064;-0.792;2023-04-03T06:37:15;5.57;;;2.42;;
50954;SDS011;36966;48.064;-0.792;2023-04-03T06:39:36;4.47;;;2.17;;
50954;SDS011;36966;48.064;-0.792;2023-04-03T06:41:55;7.05;;;3.08;;
50954;SDS011;36966;48.064;-0.792;2023-04-03T06:44:14;3.72;;;2.63;;
50954;SDS011;36966;48.064;-0.792;2023-04-03T06:46:34;5.43;;;2.92;;
50954;SDS011;36966;48.064;-0.792;2023-04-03T06:48:53;6.85;;;3.30;;
50954;SDS011;36966;48.064;-0.792;2023-04-03T06:51:15;5.80;;;3.17;;
50954;SDS011;36966;48.064;-0.792;2023-04-03T06:53:47;7.57;;;3.22;;
50954;SDS011;36966;48.064;-0.792;2023-04-03T06:56:07;7.82;;;3.17;;
50954;SDS011;36966;48.064;-0.792;2023-04-03T06:58:26;4.47;;;3.42;;
50954;SDS011;36966;48.064;-0.792;2023-04-03T07:00:46;4.65;;;3.05;;
50954;SDS011;36966;48.064;-0.792;2023-04-03T07:03:05;4.70;;;2.60;;
50954;SDS011;36966;48.064;-0.792;2023-04-03T07:05:25;5.00;;;3.53;;
50954;SDS011;36966;48.064;-0.792;2023-04-03T07:07:45;6.20;;;3.88;;
50954;SDS011;36966;48.064;-0.792;2023-04-03T07:10:05;5.65;;;3.17;;
50954;SDS011;36966;48.064;-0.792;2023-04-03T07:12:26;5.00;;;3.13;;
50954;SDS011;36966;48.064;-0.792;2023-04-03T07:14:45;5.20;;;2.83;;
50954;SDS011;36966;48.064;-0.792;2023-04-03T07:17:04;6.07;;;3.60;;
50954;SDS011;36966;48.064;-0.792;2023-04-03T07:19:24;4.70;;;3.17;;
50954;SDS011;36966;48.064;-0.792;2023-04-03T07:21:46;7.05;;;3.38;;
50954;SDS011;36966;48.064;-0.792;2023-04-03T07:24:05;9.27;;;3.65;;
50954;SDS011;36966;48.064;-0.792;2023-04-03T07:26:25;4.60;;;3.30;;
50954;SDS011;36966;48.064;-0.792;2023-04-03T07:28:44;6.15;;;3.00;;
50954;SDS011;36966;48.064;-0.792;2023-04-03T07:31:08;5.70;;;3.55;;
50954;SDS011;36966;48.064;-0.792;2023-04-03T07:33:31;6.45;;;3.08;;
50954;SDS011;36966;48.064;-0.792;2023-04-03T07:35:51;4.90;;;3.30;;
50954;SDS011;36966;48.064;-0.792;2023-04-03T07:38:11;6.25;;;3.03;;
50954;SDS011;36966;48.064;-0.792;2023-04-03T07:40:31;6.82;;;3.80;;
50954;SDS011;36966;48.064;-0.792;2023-04-03T07:42:50;6.43;;;3.22;;
50954;SDS011;36966;48.064;-0.792;2023-04-03T07:45:11;5.07;;;3.05;;
50954;SDS011;36966;48.064;-0.792;2023-04-03T07:47:30;4.38;;;2.67;;
50954;SDS011;36966;48.064;-0.792;2023-04-03T07:49:50;3.92;;;2.75;;
50954;SDS011;36966;48.064;-0.792;2023-04-03T07:52:09;4.22;;;3.47;;
50954;SDS011;36966;48.064;-0.792;2023-04-03T07:54:28;6.15;;;3.08;;
50954;SDS011;36966;48.064;-0.792;2023-04-03T07:56:47;4.78;;;3.20;;
50954;SDS011;36966;48.064;-0.792;2023-04-03T07:59:06;5.63;;;3.60;;
50954;SDS011;36966;48.064;-0.792;2023-04-03T08:01:26;5.20;;;3.25;;
50954;SDS011;36966;48.064;-0.792;2023-04-03T08:03:46;4.05;;;2.70;;
50954;SDS011;36966;48.064;-0.792;2023-04-03T08:06:06;5.47;;;3.35;;
50954;SDS011;36966;48.064;-0.792;2023-04-03T08:08:26;6.57;;;3.30;;
50954;SDS011;36966;48.064;-0.792;2023-04-03T08:10:52;5.55;;;3.13;;
50954;SDS011;36966;48.064;-0.792;2023-04-03T08:13:12;6.25;;;3.17;;
50954;SDS011;36966;48.064;-0.792;2023-04-03T08:15:31;5.00;;;3.40;;
50954;SDS011;36966;48.064;-0.792;2023-04-03T08:17:51;5.10;;;3.47;;
50954;SDS011;36966;48.064;-0.792;2023-04-03T08:20:10;5.07;;;3.13;;
50954;SDS011;36966;48.064;-0.792;2023-04-03T08:22:30;4.28;;;2.83;;
50954;SDS011;36966;48.064;-0.792;2023-04-03T08:24:49;3.80;;;2.65;;
50954;SDS011;36966;48.064;-0.792;2023-04-03T08:27:09;3.92;;;2.90;;
50954;SDS011;36966;48.064;-0.792;2023-04-03T08:29:28;7.40;;;4.55;;
50954;SDS011;36966;48.064;-0.792;2023-04-03T08:31:48;5.65;;;2.97;;
50954;SDS011;36966;48.064;-0.792;2023-04-03T08:34:09;9.68;;;3.83;;
50954;SDS011;36966;48.064;-0.792;2023-04-03T08:36:30;5.45;;;3.88;;
50954;SDS011;36966;48.064;-0.792;2023-04-03T08:38:49;4.55;;;3.03;;
50954;SDS011;36966;48.064;-0.792;2023-04-03T08:43:56;5.07;;;3.60;;
50954;SDS011;36966;48.064;-0.792;2023-04-03T08:49:20;7.30;;;4.05;;
50954;SDS011;36966;48.064;-0.792;2023-04-03T08:51:46;5.85;;;3.88;;
50954;SDS011;36966;48.064;-0.792;2023-04-03T08:54:09;9.23;;;3.97;;
50954;SDS011;36966;48.064;-0.792;2023-04-03T08:56:42;6.60;;;4.07;;
50954;SDS011;36966;48.064;-0.792;2023-04-03T08:59:03;6.75;;;3.95;;
50954;SDS011;36966;48.064;-0.792;2023-04-03T09:01:36;4.40;;;3.53;;
50954;SDS011;36966;48.064;-0.792;2023-04-03T09:04:00;6.57;;;4.05;;
50954;SDS011;36966;48.064;-0.792;2023-04-03T09:06:21;10.90;;;5.97;;
50954;SDS011;36966;48.064;-0.792;2023-04-03T09:16:15;9.05;;;3.53;;
50954;SDS011;36966;48.064;-0.792;2023-04-03T09:18:47;6.50;;;3.97;;
50954;SDS011;36966;48.064;-0.792;2023-04-03T09:21:27;6.97;;;4.07;;
50954;SDS011;36966;48.064;-0.792;2023-04-03T09:23:52;5.22;;;3.38;;
50954;SDS011;36966;48.064;-0.792;2023-04-03T09:26:21;5.57;;;3.25;;
50954;SDS011;36966;48.064;-0.792;2023-04-03T09:28:44;6.25;;;3.00;;
50954;SDS011;36966;48.064;-0.792;2023-04-03T09:31:16;4.78;;;2.80;;
50954;SDS011;36966;48.064;-0.792;2023-04-03T09:33:40;4.50;;;3.10;;
50954;SDS011;36966;48.064;-0.792;2023-04-03T09:35:59;6.22;;;3.25;;
50954;SDS011;36966;48.064;-0.792;2023-04-03T09:38:20;3.60;;;2.63;;
50954;SDS011;36966;48.064;-0.792;2023-04-03T09:40:41;3.97;;;2.60;;
50954;SDS011;36966;48.064;-0.792;2023-04-03T09:45:45;3.75;;;1.88;;
50954;SDS011;36966;48.064;-0.792;2023-04-03T09:48:17;4.50;;;2.60;;
50954;SDS011;36966;48.064;-0.792;2023-04-03T09:51:00;2.83;;;2.03;;
50954;SDS011;36966;48.064;-0.792;2023-04-03T09:53:27;4.78;;;2.45;;
50954;SDS011;36966;48.064;-0.792;2023-04-03T09:55:51;6.65;;;2.53;;
50954;SDS011;36966;48.064;-0.792;2023-04-03T09:58:23;5.43;;;3.08;;
50954;SDS011;36966;48.064;-0.792;2023-04-03T10:00:45;3.85;;;2.13;;
50954;SDS011;36966;48.064;-0.792;2023-04-03T10:03:33;3.85;;;1.85;;
50954;SDS011;36966;48.064;-0.792;2023-04-03T10:05:54;4.25;;;2.58;;
50954;SDS011;36966;48.064;-0.792;2023-04-03T10:10:32;4.57;;;2.85;;
50954;SDS011;36966;48.064;-0.792;2023-04-03T10:13:11;4.13;;;2.30;;
50954;SDS011;36966;48.064;-0.792;2023-04-03T10:15:33;2.40;;;1.92;;
50954;SDS011;36966;48.064;-0.792;2023-04-03T10:18:00;2.90;;;1.70;;
50954;SDS011;36966;48.064;-0.792;2023-04-03T10:23:22;3.50;;;2.03;;
50954;SDS011;36966;48.064;-0.792;2023-04-03T10:28:52;3.72;;;1.67;;
50954;SDS011;36966;48.064;-0.792;2023-04-03T10:34:05;2.60;;;1.92;;
50954;SDS011;36966;48.064;-0.792;2023-04-03T10:36:45;4.47;;;2.20;;
50954;SDS011;36966;48.064;-0.792;2023-04-03T10:39:20;2.92;;;1.63;;
50954;SDS011;36966;48.064;-0.792;2023-04-03T10:52:22;2.72;;;1.35;;
50954;SDS011;36966;48.064;-0.792;2023-04-03T10:54:52;4.07;;;1.60;;
50954;SDS011;36966;48.064;-0.792;2023-04-03T10:57:26;2.20;;;2.00;;
50954;SDS011;36966;48.064;-0.792;2023-04-03T10:59:53;2.50;;;1.60;;
50954;SDS011;36966;48.064;-0.792;2023-04-03T11:05:04;3.25;;;1.75;;
50954;SDS011;36966;48.064;-0.792;2023-04-03T11:07:53;1.70;;;1.02;;
50954;SDS011;36966;48.064;-0.792;2023-04-03T11:13:08;3.45;;;1.50;;
50954;SDS011;36966;48.064;-0.792;2023-04-03T11:15:32;2.35;;;1.42;;
50954;SDS011;36966;48.064;-0.792;2023-04-03T11:17:54;4.03;;;1.38;;
50954;SDS011;36966;48.064;-0.792;2023-04-03T11:20:20;1.95;;;0.88;;
50954;SDS011;36966;48.064;-0.792;2023-04-03T11:22:50;1.95;;;1.08;;
50954;SDS011;36966;48.064;-0.792;2023-04-03T11:25:21;1.80;;;1.33;;
50954;SDS011;36966;48.064;-0.792;2023-04-03T11:27:43;2.15;;;1.20;;
50954;SDS011;36966;48.064;-0.792;2023-04-03T11:30:11;2.78;;;1.48;;
50954;SDS011;36966;48.064;-0.792;2023-04-03T11:35:27;2.67;;;1.38;;
50954;SDS011;36966;48.064;-0.792;2023-04-03T11:37:52;8.43;;;1.60;;
50954;SDS011;36966;48.064;-0.792;2023-04-03T11:42:37;5.18;;;1.80;;
50954;SDS011;36966;48.064;-0.792;2023-04-03T11:47:47;2.38;;;1.17;;
50954;SDS011;36966;48.064;-0.792;2023-04-03T11:50:09;2.10;;;1.20;;
50954;SDS011;36966;48.064;-0.792;2023-04-03T11:52:58;2.20;;;1.35;;
50954;SDS011;36966;48.064;-0.792;2023-04-03T12:03:28;1.58;;;1.00;;
50954;SDS011;36966;48.064;-0.792;2023-04-03T12:05:45;2.17;;;1.40;;
50954;SDS011;36966;48.064;-0.792;2023-04-03T12:11:04;3.80;;;1.52;;
50954;SDS011;36966;48.064;-0.792;2023-04-03T12:15:50;1.90;;;1.38;;
50954;SDS011;36966;48.064;-0.792;2023-04-03T12:21:02;3.35;;;1.17;;
50954;SDS011;36966;48.064;-0.792;2023-04-03T12:24:23;2.45;;;1.70;;
50954;SDS011;36966;48.064;-0.792;2023-04-03T12:27:01;1.87;;;1.37;;
50954;SDS011;36966;48.064;-0.792;2023-04-03T12:29:21;3.25;;;1.35;;
50954;SDS011;36966;48.064;-0.792;2023-04-03T12:40:25;1.95;;;1.38;;
50954;SDS011;36966;48.064;-0.792;2023-04-03T12:45:24;2.50;;;1.10;;
50954;SDS011;36966;48.064;-0.792;2023-04-03T12:47:44;2.92;;;0.90;;
50954;SDS011;36966;48.064;-0.792;2023-04-03T12:50:28;1.48;;;1.15;;
50954;SDS011;36966;48.064;-0.792;2023-04-03T12:53:11;1.10;;;0.80;;
50954;SDS011;36966;48.064;-0.792;2023-04-03T12:55:33;2.13;;;1.30;;
50954;SDS011;36966;48.064;-0.792;2023-04-03T12:57:53;3.63;;;1.10;;
50954;SDS011;36966;48.064;-0.792;2023-04-03T13:00:27;1.48;;;1.20;;
50954;SDS011;36966;48.064;-0.792;2023-04-03T13:02:54;1.70;;;1.30;;
50954;SDS011;36966;48.064;-0.792;2023-04-03T13:05:16;2.28;;;1.45;;
50954;SDS011;36966;48.064;-0.792;2023-04-03T13:07:37;1.80;;;1.05;;
50954;SDS011;36966;48.064;-0.792;2023-04-03T13:10:00;1.77;;;1.02;;
50954;SDS011;36966;48.064;-0.792;2023-04-03T13:12:24;3.35;;;1.05;;
50954;SDS011;36966;48.064;-0.792;2023-04-03T13:14:54;2.38;;;1.15;;
50954;SDS011;36966;48.064;-0.792;2023-04-03T13:17:16;2.20;;;1.27;;
50954;SDS011;36966;48.064;-0.792;2023-04-03T13:19:36;2.47;;;1.42;;
50954;SDS011;36966;48.064;-0.792;2023-04-03T13:22:05;1.30;;;0.90;;
50954;SDS011;36966;48.064;-0.792;2023-04-03T13:24:27;1.20;;;1.10;;
50954;SDS011;36966;48.064;-0.792;2023-04-03T13:26:48;1.90;;;1.33;;
50954;SDS011;36966;48.064;-0.792;2023-04-03T13:29:21;2.22;;;1.00;;
50954;SDS011;36966;48.064;-0.792;2023-04-03T13:31:46;1.75;;;0.95;;
50954;SDS011;36966;48.064;-0.792;2023-04-03T13:36:35;1.40;;;1.10;;
50954;SDS011;36966;48.064;-0.792;2023-04-03T13:39:00;2.72;;;1.23;;
50954;SDS011;36966;48.064;-0.792;2023-04-03T13:41:27;2.15;;;1.45;;
50954;SDS011;36966;48.064;-0.792;2023-04-03T13:43:52;1.80;;;1.13;;
50954;SDS011;36966;48.064;-0.792;2023-04-03T13:48:34;1.92;;;1.00;;
50954;SDS011;36966;48.064;-0.792;2023-04-03T13:51:02;2.22;;;1.15;;
50954;SDS011;36966;48.064;-0.792;2023-04-03T13:53:24;1.50;;;1.00;;
50954;SDS011;36966;48.064;-0.792;2023-04-03T13:55:56;1.30;;;0.93;;
50954;SDS011;36966;48.064;-0.792;2023-04-03T13:58:39;2.25;;;1.02;;
50954;SDS011;36966;48.064;-0.792;2023-04-03T14:03:55;2.53;;;1.38;;
50954;SDS011;36966;48.064;-0.792;2023-04-03T14:06:16;1.40;;;1.02;;
50954;SDS011;36966;48.064;-0.792;2023-04-03T14:08:36;2.85;;;1.58;;
50954;SDS011;36966;48.064;-0.792;2023-04-03T14:10:55;2.58;;;1.40;;
50954;SDS011;36966;48.064;-0.792;2023-04-03T14:13:14;1.67;;;1.17;;
50954;SDS011;36966;48.064;-0.792;2023-04-03T14:15:34;2.22;;;1.10;;
50954;SDS011;36966;48.064;-0.792;2023-04-03T14:17:54;1.42;;;0.70;;
50954;SDS011;36966;48.064;-0.792;2023-04-03T14:20:18;2.13;;;1.45;;
50954;SDS011;36966;48.064;-0.792;2023-04-03T14:22:40;1.73;;;1.23;;
50954;SDS011;36966;48.064;-0.792;2023-04-03T14:24:59;2.35;;;1.38;;
50954;SDS011;36966;48.064;-0.792;2023-04-03T14:27:24;2.65;;;1.38;;
50954;SDS011;36966;48.064;-0.792;2023-04-03T14:29:46;4.07;;;1.45;;
50954;SDS011;36966;48.064;-0.792;2023-04-03T14:32:05;2.47;;;1.70;;
50954;SDS011;36966;48.064;-0.792;2023-04-03T14:34:25;2.47;;;1.55;;
50954;SDS011;36966;48.064;-0.792;2023-04-03T14:36:44;2.67;;;1.88;;
50954;SDS011;36966;48.064;-0.792;2023-04-03T14:39:07;2.15;;;1.73;;
50954;SDS011;36966;48.064;-0.792;2023-04-03T14:41:30;2.10;;;1.40;;
50954;SDS011;36966;48.064;-0.792;2023-04-03T14:43:49;2.97;;;1.75;;
50954;SDS011;36966;48.064;-0.792;2023-04-03T14:46:16;3.30;;;1.77;;
50954;SDS011;36966;48.064;-0.792;2023-04-03T14:48:46;2.08;;;1.58;;
50954;SDS011;36966;48.064;-0.792;2023-04-03T14:51:08;3.22;;;2.35;;
50954;SDS011;36966;48.064;-0.792;2023-04-03T14:53:29;2.85;;;1.58;;
50954;SDS011;36966;48.064;-0.792;2023-04-03T14:55:51;3.10;;;1.70;;
50954;SDS011;36966;48.064;-0.792;2023-04-03T14:58:14;2.33;;;1.75;;
50954;SDS011;36966;48.064;-0.792;2023-04-03T15:02:54;4.05;;;1.88;;
50954;SDS011;36966;48.064;-0.792;2023-04-03T15:05:13;6.45;;;1.67;;
50954;SDS011;36966;48.064;-0.792;2023-04-03T15:07:34;3.17;;;1.75;;
50954;SDS011;36966;48.064;-0.792;2023-04-03T15:10:03;2.25;;;2.00;;
50954;SDS011;36966;48.064;-0.792;2023-04-03T15:12:34;3.58;;;2.10;;
50954;SDS011;36966;48.064;-0.792;2023-04-03T15:14:53;2.78;;;1.50;;
50954;SDS011;36966;48.064;-0.792;2023-04-03T15:17:16;2.00;;;1.63;;
50954;SDS011;36966;48.064;-0.792;2023-04-03T15:19:38;3.30;;;1.90;;
50954;SDS011;36966;48.064;-0.792;2023-04-03T15:21:57;1.98;;;1.48;;
50954;SDS011;36966;48.064;-0.792;2023-04-03T15:24:16;4.35;;;1.65;;
50954;SDS011;36966;48.064;-0.792;2023-04-03T15:26:35;3.38;;;1.20;;
50954;SDS011;36966;48.064;-0.792;2023-04-03T15:28:55;3.03;;;1.50;;
50954;SDS011;36966;48.064;-0.792;2023-04-03T15:31:14;2.13;;;1.10;;
50954;SDS011;36966;48.064;-0.792;2023-04-03T15:33:34;3.50;;;1.80;;
50954;SDS011;36966;48.064;-0.792;2023-04-03T15:35:54;2.40;;;1.48;;
50954;SDS011;36966;48.064;-0.792;2023-04-03T15:38:14;4.80;;;2.15;;
50954;SDS011;36966;48.064;-0.792;2023-04-03T15:40:33;2.42;;;1.33;;